Grantville, KS (66429)

12:45 AM CDT on March 30, 2017 (GMT -0500)
MUP250 | | Change Station

Elev 879 ft 39.08 °N, 95.56 °W | Updated 16 minutes ago

Overcast
Overcast
54.0 °F
Feels Like 54.0 °F
N
1.0
Wind Variable Wind from West
Gusts 9.0 mph

Today
High -- | Low -- °F
--% Chance of Precip.
Yesterday
High -- | Low -- °F
Precip. -- in
Pressure 29.58 in
Visibility 10.0 miles
Clouds Few 700 ft
Scattered Clouds 1600 ft
Overcast 2300 ft
Dew Point Not available.
Humidity Not available.
Rainfall in
Snow Depth Not available.
7:09 AM 7:44 PM
Waxing Crescent, 6% visible
METAR KTOP 300453Z AUTO 15004KT 10SM FEW007 SCT016 OVC023 13/13 A2959 RMK AO2 SLP017 T01330133
Pressure 29.58 in
Visibility 10.0 miles
Clouds Few 700 ft
Scattered Clouds 1600 ft
Overcast 2300 ft
Dew Point Not available.
Humidity Not available.
Rainfall in
Snow Depth Not available.
7:09 AM 7:44 PM
Waxing Crescent, 6% visible
METAR KTOP 300453Z AUTO 15004KT 10SM FEW007 SCT016 OVC023 13/13 A2959 RMK AO2 SLP017 T01330133

Get Severe Weather Alerts

Thanks for signing up!

Be on the lookout for a verification email in your inbox.

You'll start receiving the daily forecast at 8 AM.

×

10-Day Weather Forecast

Almanac

Astronomy

Mar. 30, 2017 Rise Set
Actual Time
Civil Twilight
Nautical Twilight
Astronomical Twilight
Moon
Length of Visible Light
Length of Day
Tomorrow will be .
, % of the Moon is Illuminated

Today's Extremes

State Highs State Lows

Community

WunderPhotos

Upload Photos

1,962,540 photos uploaded!

WunderBlog® & News

Nearby

Air Quality

  Air Quality AQ Index Pollutant
Not available.

Snow Depth

Station Depth Elevation

Earthquake Activity

City Distance Mag. Time & Date
Minimum magnitude displayed is 2.5.

Earthquake Activity

City Distance Mag. Time & Date
Minimum magnitude displayed is 2.5.

Coastal Water Temperatures

Place Temperature

Stations

Nearby Weather Stations

Station Location Temp. Windchill Dew Point Humidity Wind Precip. Elev Updated Type
                   

Watches & Warnings

There are currently no watches in effect.